LFKFLFKB

Guest
Details From LFKF - Figari Sud Corse
To LFKB - Bastia Poretta
Flight Number -
Tags generated
Created
Modified
Stats Distance 67 nm / 124 km
Max Altitude 6,000 ft / 1,829 m
Waypoints 3
Social Downloads 1
Likes 0
Share VATSIM

Download

Looking for another format? Having issues loading an existing format? Contact us
Advertisement - Login to hide

Notes

Basic altitude profile: - Ascent Rate: 2500ft/min - Ascent Speed: 80kts - Cruise Altitude: 6000ft - Cruise Speed: 120kts - Descent Rate: 1500ft/min - Descent Speed: 120kts

Route

LFKF SZA LFKB

ID Type Via Altitude Latitude Longitude Leg Dist Tot Dist Heading (true) Name
O LFKF APT - 0 ft / 0 m 41.50206˚ 9.09696˚ - 0 nm - Figari Sud Corse
SZA VOR - 6,000 ft / 1,829 m 41.93747˚ 9.41622˚ 29 nm 29 nm 29° / 29° -
O LFKB APT - 0 ft / 0 m 42.55251˚ 9.48371˚ 37 nm 66 nm 5° / 5° Bastia Poretta

Altitude Profile

Advertisement - Login to hide

LFKF

Details ICAO LFKF (FSC)
Name Figari Sud Corse
Region France
Timezone Europe/Paris (UTC+1.0)
Stats Elevation 87 ft / 27 m (AMSL)
Location 41.502064° 9.096960°
Runways 1
Magnetic Variation 2.378° E

METAR

LFKF 151400Z AUTO 29014G26KT 260V320 9999 FEW033/// SCT078/// OVC098/// ///TCU 13/08 Q1000 TEMPO RA BECMG BKN020 BKN040

Decode

TAF

TAF AMD LFKF 151009Z 1510/1609 25015G25KT 9999 BKN020 BKN040 TEMPO 1510/1515 RA BKN007 BKN015 OVC030 FEW035TCU TEMPO 1600/1609 27015G35KT SHRA FEW040TCU

Decode

Departure Runways

ID Width Length Bearing (true) Bearing (mag) Surface Threshold Offset Overrun Length
05 148 ft / 45 m 8,131 ft / 2,478 m 47.42° 45.04° Asphalt 0 ft / 0 m 0 ft / 0 m
23 148 ft / 45 m 8,131 ft / 2,478 m 227.44° 225.06° Asphalt 0 ft / 0 m 0 ft / 0 m

LFKB

Details ICAO LFKB (BIA)
Name Bastia Poretta
Region France
Timezone Europe/Paris (UTC+1.0)
Stats Elevation 25 ft / 8 m (AMSL)
Location 42.552508° 9.483709°
Runways 1
Magnetic Variation 2.485° E

METAR

LFKB 151400Z AUTO VRB03KT 9999 SCT058 BKN100 BKN130 14/08 Q0998 NOSIG

Decode

TAF

TAF TAF LFKB 150800Z 1509/1609 VRB05KT 9999 FEW050 BKN080 OVC230 BECMG 1518/1519 24020G30KT FEW050 BECMG 1602/1603 24008KT TX14/1512Z TN09/1606Z

Decode

Destination Runways

ID Width Length Bearing (true) Bearing (mag) Surface Threshold Offset Overrun Length
16 148 ft / 45 m 8,273 ft / 2,522 m 162.83° 160.34° Concrete 0 ft / 0 m 131 ft / 40 m
34 148 ft / 45 m 8,273 ft / 2,522 m 342.84° 340.35° Concrete 0 ft / 0 m 0 ft / 0 m

Approach Navaids

Runway Type Ident Frequency Range Bearing (true) Bearing (mag) Slope Elevation
34 Localiser BP 111.35 MHz 27 nm / 50 km 342.81° 340.32° - 25 ft / 8 m (AMSL)
34 Glidescope BP 111.35 MHz 27 nm / 50 km 342.81° 340.32° 3.00° 25 ft / 8 m (AMSL)
34 DME BP 111.35 MHz 18 nm / 33 km - - - 69 ft / 21 m (AMSL)

Popular Alternatives